sensor_id;sensor_type;location;lat;lon;timestamp;P1;durP1;ratioP1;P2;durP2;ratioP2
20557;SDS011;10437;48.156;11.530;2023-12-14T00:02:07;0.80;;;0.70;;
20557;SDS011;10437;48.156;11.530;2023-12-14T00:04:34;3.33;;;0.77;;
20557;SDS011;10437;48.156;11.530;2023-12-14T00:07:03;0.97;;;0.60;;
20557;SDS011;10437;48.156;11.530;2023-12-14T00:09:30;1.40;;;0.70;;
20557;SDS011;10437;48.156;11.530;2023-12-14T00:11:57;2.60;;;0.60;;
20557;SDS011;10437;48.156;11.530;2023-12-14T00:14:24;1.07;;;0.50;;
20557;SDS011;10437;48.156;11.530;2023-12-14T00:16:51;0.83;;;0.80;;
20557;SDS011;10437;48.156;11.530;2023-12-14T00:19:19;1.67;;;0.50;;
20557;SDS011;10437;48.156;11.530;2023-12-14T00:21:46;1.57;;;0.70;;
20557;SDS011;10437;48.156;11.530;2023-12-14T00:24:14;0.63;;;0.50;;
20557;SDS011;10437;48.156;11.530;2023-12-14T00:26:42;1.23;;;0.60;;
20557;SDS011;10437;48.156;11.530;2023-12-14T00:29:09;0.90;;;0.70;;
20557;SDS011;10437;48.156;11.530;2023-12-14T00:31:36;1.10;;;0.60;;
20557;SDS011;10437;48.156;11.530;2023-12-14T00:34:03;1.00;;;0.50;;
20557;SDS011;10437;48.156;11.530;2023-12-14T00:36:31;1.33;;;0.70;;
20557;SDS011;10437;48.156;11.530;2023-12-14T00:38:58;1.07;;;0.70;;
20557;SDS011;10437;48.156;11.530;2023-12-14T00:41:27;1.17;;;0.60;;
20557;SDS011;10437;48.156;11.530;2023-12-14T00:43:54;0.97;;;0.60;;
20557;SDS011;10437;48.156;11.530;2023-12-14T00:46:21;0.70;;;0.70;;
20557;SDS011;10437;48.156;11.530;2023-12-14T00:48:48;1.60;;;0.80;;
20557;SDS011;10437;48.156;11.530;2023-12-14T00:51:16;1.00;;;0.70;;
20557;SDS011;10437;48.156;11.530;2023-12-14T00:53:43;1.00;;;0.70;;
20557;SDS011;10437;48.156;11.530;2023-12-14T00:56:10;1.13;;;0.77;;
20557;SDS011;10437;48.156;11.530;2023-12-14T00:58:39;1.23;;;0.83;;
20557;SDS011;10437;48.156;11.530;2023-12-14T01:01:06;3.50;;;0.90;;
20557;SDS011;10437;48.156;11.530;2023-12-14T01:03:33;1.50;;;0.90;;
20557;SDS011;10437;48.156;11.530;2023-12-14T01:06:00;0.90;;;0.70;;
20557;SDS011;10437;48.156;11.530;2023-12-14T01:08:27;1.70;;;0.90;;
20557;SDS011;10437;48.156;11.530;2023-12-14T01:10:54;1.60;;;0.90;;
20557;SDS011;10437;48.156;11.530;2023-12-14T01:13:22;1.27;;;0.83;;
20557;SDS011;10437;48.156;11.530;2023-12-14T01:15:50;1.00;;;0.70;;
20557;SDS011;10437;48.156;11.530;2023-12-14T01:18:17;0.90;;;0.70;;
20557;SDS011;10437;48.156;11.530;2023-12-14T01:20:45;0.90;;;0.60;;
20557;SDS011;10437;48.156;11.530;2023-12-14T01:23:12;1.43;;;0.73;;
20557;SDS011;10437;48.156;11.530;2023-12-14T01:25:40;0.77;;;0.70;;
20557;SDS011;10437;48.156;11.530;2023-12-14T01:28:07;1.03;;;0.80;;
20557;SDS011;10437;48.156;11.530;2023-12-14T01:30:35;0.83;;;0.70;;
20557;SDS011;10437;48.156;11.530;2023-12-14T01:33:03;0.70;;;0.57;;
20557;SDS011;10437;48.156;11.530;2023-12-14T01:35:30;0.50;;;0.50;;
20557;SDS011;10437;48.156;11.530;2023-12-14T01:37:57;1.03;;;0.53;;
20557;SDS011;10437;48.156;11.530;2023-12-14T01:40:25;0.97;;;0.40;;
20557;SDS011;10437;48.156;11.530;2023-12-14T01:42:52;0.77;;;0.50;;
20557;SDS011;10437;48.156;11.530;2023-12-14T01:45:19;0.90;;;0.60;;
20557;SDS011;10437;48.156;11.530;2023-12-14T01:47:46;0.30;;;0.30;;
20557;SDS011;10437;48.156;11.530;2023-12-14T01:50:15;0.70;;;0.50;;
20557;SDS011;10437;48.156;11.530;2023-12-14T01:52:42;2.10;;;0.47;;
20557;SDS011;10437;48.156;11.530;2023-12-14T01:55:10;0.40;;;0.40;;
20557;SDS011;10437;48.156;11.530;2023-12-14T01:57:37;1.90;;;0.43;;
20557;SDS011;10437;48.156;11.530;2023-12-14T02:00:04;0.60;;;0.40;;
20557;SDS011;10437;48.156;11.530;2023-12-14T02:02:32;1.70;;;0.30;;
20557;SDS011;10437;48.156;11.530;2023-12-14T02:05:00;0.53;;;0.40;;
20557;SDS011;10437;48.156;11.530;2023-12-14T02:07:29;0.77;;;0.43;;
20557;SDS011;10437;48.156;11.530;2023-12-14T02:09:56;0.13;;;0.13;;
20557;SDS011;10437;48.156;11.530;2023-12-14T02:12:23;0.67;;;0.30;;
20557;SDS011;10437;48.156;11.530;2023-12-14T02:14:50;0.30;;;0.30;;
20557;SDS011;10437;48.156;11.530;2023-12-14T02:17:17;0.50;;;0.30;;
20557;SDS011;10437;48.156;11.530;2023-12-14T02:19:45;0.40;;;0.27;;
20557;SDS011;10437;48.156;11.530;2023-12-14T02:22:12;0.80;;;0.40;;
20557;SDS011;10437;48.156;11.530;2023-12-14T02:24:40;2.73;;;0.60;;
20557;SDS011;10437;48.156;11.530;2023-12-14T02:27:08;0.90;;;0.60;;
20557;SDS011;10437;48.156;11.530;2023-12-14T02:29:35;0.30;;;0.30;;
20557;SDS011;10437;48.156;11.530;2023-12-14T02:32:02;0.90;;;0.60;;
20557;SDS011;10437;48.156;11.530;2023-12-14T02:34:29;0.63;;;0.53;;
20557;SDS011;10437;48.156;11.530;2023-12-14T02:36:57;0.50;;;0.50;;
20557;SDS011;10437;48.156;11.530;2023-12-14T02:39:24;1.83;;;0.70;;
20557;SDS011;10437;48.156;11.530;2023-12-14T02:41:52;1.20;;;0.80;;
20557;SDS011;10437;48.156;11.530;2023-12-14T02:44:19;1.40;;;0.97;;
20557;SDS011;10437;48.156;11.530;2023-12-14T02:46:46;1.20;;;0.90;;
20557;SDS011;10437;48.156;11.530;2023-12-14T02:49:14;1.50;;;1.00;;
20557;SDS011;10437;48.156;11.530;2023-12-14T02:51:41;2.50;;;1.10;;
20557;SDS011;10437;48.156;11.530;2023-12-14T02:54:08;1.63;;;1.33;;
20557;SDS011;10437;48.156;11.530;2023-12-14T02:56:35;1.97;;;1.13;;
20557;SDS011;10437;48.156;11.530;2023-12-14T02:59:04;1.73;;;1.10;;
20557;SDS011;10437;48.156;11.530;2023-12-14T03:01:31;3.07;;;1.00;;
20557;SDS011;10437;48.156;11.530;2023-12-14T03:03:58;1.83;;;1.30;;
20557;SDS011;10437;48.156;11.530;2023-12-14T03:06:25;1.80;;;1.10;;
20557;SDS011;10437;48.156;11.530;2023-12-14T03:08:52;1.73;;;1.20;;
20557;SDS011;10437;48.156;11.530;2023-12-14T03:11:22;1.60;;;1.03;;
20557;SDS011;10437;48.156;11.530;2023-12-14T03:13:50;1.47;;;1.00;;
20557;SDS011;10437;48.156;11.530;2023-12-14T03:16:19;1.47;;;1.03;;
20557;SDS011;10437;48.156;11.530;2023-12-14T03:18:46;1.50;;;1.27;;
20557;SDS011;10437;48.156;11.530;2023-12-14T03:21:17;2.13;;;1.37;;
20557;SDS011;10437;48.156;11.530;2023-12-14T03:23:44;2.77;;;1.40;;
20557;SDS011;10437;48.156;11.530;2023-12-14T03:26:11;2.13;;;1.50;;
20557;SDS011;10437;48.156;11.530;2023-12-14T03:28:39;1.87;;;1.40;;
20557;SDS011;10437;48.156;11.530;2023-12-14T03:31:06;1.60;;;1.20;;
20557;SDS011;10437;48.156;11.530;2023-12-14T03:33:34;2.00;;;1.30;;
20557;SDS011;10437;48.156;11.530;2023-12-14T03:36:02;1.57;;;1.30;;
20557;SDS011;10437;48.156;11.530;2023-12-14T03:38:29;1.90;;;1.50;;
20557;SDS011;10437;48.156;11.530;2023-12-14T03:40:56;1.30;;;1.20;;
20557;SDS011;10437;48.156;11.530;2023-12-14T03:43:23;2.43;;;1.63;;
20557;SDS011;10437;48.156;11.530;2023-12-14T03:45:51;1.60;;;1.40;;
20557;SDS011;10437;48.156;11.530;2023-12-14T03:48:18;2.10;;;1.50;;
20557;SDS011;10437;48.156;11.530;2023-12-14T03:50:47;1.80;;;1.30;;
20557;SDS011;10437;48.156;11.530;2023-12-14T03:53:14;2.00;;;1.50;;
20557;SDS011;10437;48.156;11.530;2023-12-14T03:55:41;2.23;;;1.40;;
20557;SDS011;10437;48.156;11.530;2023-12-14T03:58:08;1.70;;;1.40;;
20557;SDS011;10437;48.156;11.530;2023-12-14T04:00:35;2.23;;;1.47;;
20557;SDS011;10437;48.156;11.530;2023-12-14T04:03:03;1.53;;;0.93;;
20557;SDS011;10437;48.156;11.530;2023-12-14T04:05:30;1.50;;;1.20;;
20557;SDS011;10437;48.156;11.530;2023-12-14T04:07:58;1.90;;;1.40;;
20557;SDS011;10437;48.156;11.530;2023-12-14T04:10:26;2.77;;;1.50;;
20557;SDS011;10437;48.156;11.530;2023-12-14T04:12:53;2.57;;;1.40;;
20557;SDS011;10437;48.156;11.530;2023-12-14T04:15:20;1.80;;;1.40;;
20557;SDS011;10437;48.156;11.530;2023-12-14T04:17:47;1.20;;;1.10;;
20557;SDS011;10437;48.156;11.530;2023-12-14T04:20:15;2.37;;;1.40;;
20557;SDS011;10437;48.156;11.530;2023-12-14T04:22:42;1.83;;;1.40;;
20557;SDS011;10437;48.156;11.530;2023-12-14T04:25:11;1.77;;;1.20;;
20557;SDS011;10437;48.156;11.530;2023-12-14T04:27:38;1.77;;;1.23;;
20557;SDS011;10437;48.156;11.530;2023-12-14T04:30:06;3.00;;;1.40;;
20557;SDS011;10437;48.156;11.530;2023-12-14T04:32:35;2.97;;;1.20;;
20557;SDS011;10437;48.156;11.530;2023-12-14T04:35:03;1.87;;;1.20;;
20557;SDS011;10437;48.156;11.530;2023-12-14T04:37:30;1.57;;;1.10;;
20557;SDS011;10437;48.156;11.530;2023-12-14T04:39:57;1.67;;;1.40;;
20557;SDS011;10437;48.156;11.530;2023-12-14T04:42:26;1.87;;;1.00;;
20557;SDS011;10437;48.156;11.530;2023-12-14T04:44:53;1.60;;;1.20;;
20557;SDS011;10437;48.156;11.530;2023-12-14T04:47:20;1.40;;;0.83;;
20557;SDS011;10437;48.156;11.530;2023-12-14T04:49:47;2.13;;;1.03;;
20557;SDS011;10437;48.156;11.530;2023-12-14T04:52:15;1.93;;;1.50;;
20557;SDS011;10437;48.156;11.530;2023-12-14T04:54:42;1.67;;;1.00;;
20557;SDS011;10437;48.156;11.530;2023-12-14T04:57:09;2.20;;;0.80;;
20557;SDS011;10437;48.156;11.530;2023-12-14T04:59:38;1.10;;;0.80;;
20557;SDS011;10437;48.156;11.530;2023-12-14T05:02:08;1.40;;;0.60;;
20557;SDS011;10437;48.156;11.530;2023-12-14T05:04:35;1.30;;;0.90;;
20557;SDS011;10437;48.156;11.530;2023-12-14T05:07:02;0.97;;;0.60;;
20557;SDS011;10437;48.156;11.530;2023-12-14T05:09:30;1.23;;;0.70;;
20557;SDS011;10437;48.156;11.530;2023-12-14T05:11:57;1.13;;;0.80;;
20557;SDS011;10437;48.156;11.530;2023-12-14T05:14:24;1.17;;;0.77;;
20557;SDS011;10437;48.156;11.530;2023-12-14T05:16:55;1.90;;;0.90;;
20557;SDS011;10437;48.156;11.530;2023-12-14T05:19:22;1.33;;;0.70;;
20557;SDS011;10437;48.156;11.530;2023-12-14T05:21:49;1.17;;;0.73;;
20557;SDS011;10437;48.156;11.530;2023-12-14T05:24:19;2.90;;;0.80;;
20557;SDS011;10437;48.156;11.530;2023-12-14T05:26:47;1.03;;;0.70;;
20557;SDS011;10437;48.156;11.530;2023-12-14T05:29:15;1.67;;;0.93;;
20557;SDS011;10437;48.156;11.530;2023-12-14T05:31:42;3.13;;;0.90;;
20557;SDS011;10437;48.156;11.530;2023-12-14T05:34:11;2.10;;;1.00;;
20557;SDS011;10437;48.156;11.530;2023-12-14T05:36:38;2.27;;;1.00;;
20557;SDS011;10437;48.156;11.530;2023-12-14T05:39:05;1.93;;;0.90;;
20557;SDS011;10437;48.156;11.530;2023-12-14T05:41:33;1.37;;;0.90;;
20557;SDS011;10437;48.156;11.530;2023-12-14T05:44:00;1.87;;;1.30;;
20557;SDS011;10437;48.156;11.530;2023-12-14T05:46:27;2.07;;;1.10;;
20557;SDS011;10437;48.156;11.530;2023-12-14T05:48:54;3.07;;;1.33;;
20557;SDS011;10437;48.156;11.530;2023-12-14T05:51:30;1.70;;;0.97;;
20557;SDS011;10437;48.156;11.530;2023-12-14T05:53:57;1.37;;;0.80;;
20557;SDS011;10437;48.156;11.530;2023-12-14T05:56:25;1.53;;;1.20;;
20557;SDS011;10437;48.156;11.530;2023-12-14T05:58:52;2.57;;;1.30;;
20557;SDS011;10437;48.156;11.530;2023-12-14T06:01:19;1.70;;;1.20;;
20557;SDS011;10437;48.156;11.530;2023-12-14T06:03:47;4.53;;;1.50;;
20557;SDS011;10437;48.156;11.530;2023-12-14T06:06:14;3.83;;;1.30;;
20557;SDS011;10437;48.156;11.530;2023-12-14T06:08:43;1.20;;;1.00;;
20557;SDS011;10437;48.156;11.530;2023-12-14T06:11:10;2.47;;;1.57;;
20557;SDS011;10437;48.156;11.530;2023-12-14T06:13:37;2.90;;;1.40;;
20557;SDS011;10437;48.156;11.530;2023-12-14T06:16:05;4.00;;;1.60;;
20557;SDS011;10437;48.156;11.530;2023-12-14T06:18:37;2.37;;;1.57;;
20557;SDS011;10437;48.156;11.530;2023-12-14T06:21:06;3.53;;;1.80;;
20557;SDS011;10437;48.156;11.530;2023-12-14T06:23:34;3.43;;;1.70;;
20557;SDS011;10437;48.156;11.530;2023-12-14T06:26:03;3.90;;;1.80;;
20557;SDS011;10437;48.156;11.530;2023-12-14T06:28:30;5.73;;;1.90;;
20557;SDS011;10437;48.156;11.530;2023-12-14T06:30:58;3.70;;;1.80;;
20557;SDS011;10437;48.156;11.530;2023-12-14T06:33:26;3.23;;;2.00;;
20557;SDS011;10437;48.156;11.530;2023-12-14T06:35:53;3.33;;;1.83;;
20557;SDS011;10437;48.156;11.530;2023-12-14T06:38:21;4.23;;;1.97;;
20557;SDS011;10437;48.156;11.530;2023-12-14T06:40:48;3.03;;;1.83;;
20557;SDS011;10437;48.156;11.530;2023-12-14T06:43:17;4.13;;;2.33;;
20557;SDS011;10437;48.156;11.530;2023-12-14T06:45:43;3.63;;;1.90;;
20557;SDS011;10437;48.156;11.530;2023-12-14T06:48:11;4.00;;;1.73;;
20557;SDS011;10437;48.156;11.530;2023-12-14T06:50:38;3.60;;;2.03;;
20557;SDS011;10437;48.156;11.530;2023-12-14T06:53:05;3.23;;;2.17;;
20557;SDS011;10437;48.156;11.530;2023-12-14T06:55:32;4.83;;;2.43;;
20557;SDS011;10437;48.156;11.530;2023-12-14T06:58:00;9.67;;;2.33;;
20557;SDS011;10437;48.156;11.530;2023-12-14T07:00:28;3.73;;;2.20;;
20557;SDS011;10437;48.156;11.530;2023-12-14T07:02:55;4.20;;;1.87;;
20557;SDS011;10437;48.156;11.530;2023-12-14T07:05:23;4.47;;;2.20;;
20557;SDS011;10437;48.156;11.530;2023-12-14T07:07:50;3.73;;;2.50;;
20557;SDS011;10437;48.156;11.530;2023-12-14T07:10:17;5.63;;;2.70;;
20557;SDS011;10437;48.156;11.530;2023-12-14T07:12:44;5.20;;;2.63;;
20557;SDS011;10437;48.156;11.530;2023-12-14T07:15:11;4.33;;;2.47;;
20557;SDS011;10437;48.156;11.530;2023-12-14T07:17:40;4.70;;;2.43;;
20557;SDS011;10437;48.156;11.530;2023-12-14T07:20:07;4.57;;;2.57;;
20557;SDS011;10437;48.156;11.530;2023-12-14T07:22:36;4.07;;;2.20;;
20557;SDS011;10437;48.156;11.530;2023-12-14T07:25:03;4.63;;;2.50;;
20557;SDS011;10437;48.156;11.530;2023-12-14T07:27:31;5.47;;;2.90;;
20557;SDS011;10437;48.156;11.530;2023-12-14T07:29:58;4.07;;;2.40;;
20557;SDS011;10437;48.156;11.530;2023-12-14T07:32:25;6.53;;;2.77;;
20557;SDS011;10437;48.156;11.530;2023-12-14T07:34:54;5.67;;;2.53;;
20557;SDS011;10437;48.156;11.530;2023-12-14T07:37:21;7.57;;;3.20;;
20557;SDS011;10437;48.156;11.530;2023-12-14T07:39:48;7.50;;;3.60;;
20557;SDS011;10437;48.156;11.530;2023-12-14T07:42:15;6.63;;;3.30;;
20557;SDS011;10437;48.156;11.530;2023-12-14T07:44:45;6.17;;;3.33;;
20557;SDS011;10437;48.156;11.530;2023-12-14T07:47:12;6.60;;;3.93;;
20557;SDS011;10437;48.156;11.530;2023-12-14T07:49:39;9.23;;;3.57;;
20557;SDS011;10437;48.156;11.530;2023-12-14T07:52:08;8.13;;;4.00;;
20557;SDS011;10437;48.156;11.530;2023-12-14T07:54:35;7.10;;;3.90;;
20557;SDS011;10437;48.156;11.530;2023-12-14T07:57:02;7.27;;;4.00;;
20557;SDS011;10437;48.156;11.530;2023-12-14T07:59:30;7.90;;;3.93;;
20557;SDS011;10437;48.156;11.530;2023-12-14T08:01:57;10.20;;;5.10;;
20557;SDS011;10437;48.156;11.530;2023-12-14T08:04:24;7.70;;;4.27;;
20557;SDS011;10437;48.156;11.530;2023-12-14T08:06:52;7.93;;;4.50;;
20557;SDS011;10437;48.156;11.530;2023-12-14T08:09:20;8.83;;;4.87;;
20557;SDS011;10437;48.156;11.530;2023-12-14T08:11:47;8.40;;;4.50;;
20557;SDS011;10437;48.156;11.530;2023-12-14T08:14:17;11.70;;;4.60;;
20557;SDS011;10437;48.156;11.530;2023-12-14T08:16:44;8.93;;;4.77;;
20557;SDS011;10437;48.156;11.530;2023-12-14T08:19:11;9.80;;;5.50;;
20557;SDS011;10437;48.156;11.530;2023-12-14T08:21:38;9.93;;;4.60;;
20557;SDS011;10437;48.156;11.530;2023-12-14T08:24:05;10.10;;;5.23;;
20557;SDS011;10437;48.156;11.530;2023-12-14T08:26:34;9.77;;;4.73;;
20557;SDS011;10437;48.156;11.530;2023-12-14T08:29:01;9.97;;;5.23;;
20557;SDS011;10437;48.156;11.530;2023-12-14T08:31:28;8.87;;;4.87;;
20557;SDS011;10437;48.156;11.530;2023-12-14T08:33:55;11.93;;;5.17;;
20557;SDS011;10437;48.156;11.530;2023-12-14T08:36:23;13.20;;;5.57;;
20557;SDS011;10437;48.156;11.530;2023-12-14T08:38:50;8.60;;;4.90;;
20557;SDS011;10437;48.156;11.530;2023-12-14T08:41:17;11.37;;;5.80;;
20557;SDS011;10437;48.156;11.530;2023-12-14T08:43:46;8.93;;;4.90;;
20557;SDS011;10437;48.156;11.530;2023-12-14T08:46:13;9.63;;;5.00;;
20557;SDS011;10437;48.156;11.530;2023-12-14T08:48:40;9.67;;;4.60;;
20557;SDS011;10437;48.156;11.530;2023-12-14T08:51:07;7.90;;;4.33;;
20557;SDS011;10437;48.156;11.530;2023-12-14T08:53:34;7.20;;;3.93;;
20557;SDS011;10437;48.156;11.530;2023-12-14T08:56:02;7.13;;;3.67;;
20557;SDS011;10437;48.156;11.530;2023-12-14T08:58:29;7.13;;;4.00;;
20557;SDS011;10437;48.156;11.530;2023-12-14T09:00:58;7.00;;;3.77;;
20557;SDS011;10437;48.156;11.530;2023-12-14T09:03:24;8.33;;;3.90;;
20557;SDS011;10437;48.156;11.530;2023-12-14T09:05:52;7.33;;;3.90;;
20557;SDS011;10437;48.156;11.530;2023-12-14T09:08:19;5.80;;;3.90;;
20557;SDS011;10437;48.156;11.530;2023-12-14T09:10:46;7.83;;;4.23;;
20557;SDS011;10437;48.156;11.530;2023-12-14T09:13:13;7.67;;;3.97;;
20557;SDS011;10437;48.156;11.530;2023-12-14T09:15:41;9.10;;;3.47;;
20557;SDS011;10437;48.156;11.530;2023-12-14T09:18:09;4.73;;;3.10;;
20557;SDS011;10437;48.156;11.530;2023-12-14T09:20:36;7.77;;;3.57;;
20557;SDS011;10437;48.156;11.530;2023-12-14T09:23:05;5.73;;;3.60;;
20557;SDS011;10437;48.156;11.530;2023-12-14T09:25:32;6.37;;;3.57;;
20557;SDS011;10437;48.156;11.530;2023-12-14T09:28:00;8.70;;;4.07;;
20557;SDS011;10437;48.156;11.530;2023-12-14T09:30:27;7.00;;;3.77;;
20557;SDS011;10437;48.156;11.530;2023-12-14T09:32:54;7.50;;;3.53;;
20557;SDS011;10437;48.156;11.530;2023-12-14T09:35:22;5.30;;;3.37;;
20557;SDS011;10437;48.156;11.530;2023-12-14T09:37:50;5.63;;;3.30;;
20557;SDS011;10437;48.156;11.530;2023-12-14T09:40:17;5.17;;;2.80;;
20557;SDS011;10437;48.156;11.530;2023-12-14T09:42:44;6.63;;;2.90;;
20557;SDS011;10437;48.156;11.530;2023-12-14T09:45:12;6.60;;;2.70;;
20557;SDS011;10437;48.156;11.530;2023-12-14T09:47:39;7.73;;;3.23;;
20557;SDS011;10437;48.156;11.530;2023-12-14T09:50:08;5.53;;;3.60;;
20557;SDS011;10437;48.156;11.530;2023-12-14T09:52:36;5.00;;;3.17;;
20557;SDS011;10437;48.156;11.530;2023-12-14T09:55:04;5.80;;;3.10;;
20557;SDS011;10437;48.156;11.530;2023-12-14T09:57:31;6.23;;;3.23;;
20557;SDS011;10437;48.156;11.530;2023-12-14T09:59:58;5.47;;;3.37;;
20557;SDS011;10437;48.156;11.530;2023-12-14T10:02:26;5.73;;;3.13;;
20557;SDS011;10437;48.156;11.530;2023-12-14T10:04:53;6.53;;;3.43;;
20557;SDS011;10437;48.156;11.530;2023-12-14T10:07:20;6.00;;;3.50;;
20557;SDS011;10437;48.156;11.530;2023-12-14T10:09:49;6.93;;;4.07;;
20557;SDS011;10437;48.156;11.530;2023-12-14T10:12:18;6.37;;;3.50;;
20557;SDS011;10437;48.156;11.530;2023-12-14T10:14:46;5.67;;;2.77;;
20557;SDS011;10437;48.156;11.530;2023-12-14T10:17:16;4.10;;;2.77;;
20557;SDS011;10437;48.156;11.530;2023-12-14T10:19:44;7.87;;;3.33;;
20557;SDS011;10437;48.156;11.530;2023-12-14T10:22:11;4.87;;;3.00;;
20557;SDS011;10437;48.156;11.530;2023-12-14T10:24:42;5.93;;;2.70;;
20557;SDS011;10437;48.156;11.530;2023-12-14T10:27:11;5.87;;;2.60;;
20557;SDS011;10437;48.156;11.530;2023-12-14T10:29:38;5.00;;;2.83;;
20557;SDS011;10437;48.156;11.530;2023-12-14T10:32:06;5.53;;;3.07;;
20557;SDS011;10437;48.156;11.530;2023-12-14T10:34:34;4.23;;;2.93;;
20557;SDS011;10437;48.156;11.530;2023-12-14T10:37:04;4.63;;;2.67;;
20557;SDS011;10437;48.156;11.530;2023-12-14T10:39:33;5.73;;;3.23;;
20557;SDS011;10437;48.156;11.530;2023-12-14T10:42:02;4.73;;;2.80;;
20557;SDS011;10437;48.156;11.530;2023-12-14T10:44:34;3.73;;;2.47;;
20557;SDS011;10437;48.156;11.530;2023-12-14T10:47:03;4.70;;;2.83;;
20557;SDS011;10437;48.156;11.530;2023-12-14T10:49:30;4.43;;;2.77;;
20557;SDS011;10437;48.156;11.530;2023-12-14T10:52:00;4.20;;;2.53;;
20557;SDS011;10437;48.156;11.530;2023-12-14T10:54:29;3.90;;;2.60;;
20557;SDS011;10437;48.156;11.530;2023-12-14T10:56:59;6.47;;;2.80;;
20557;SDS011;10437;48.156;11.530;2023-12-14T10:59:27;6.47;;;3.20;;
20557;SDS011;10437;48.156;11.530;2023-12-14T11:01:55;4.83;;;3.00;;
20557;SDS011;10437;48.156;11.530;2023-12-14T11:04:23;5.83;;;3.00;;
20557;SDS011;10437;48.156;11.530;2023-12-14T11:06:52;5.73;;;3.17;;
20557;SDS011;10437;48.156;11.530;2023-12-14T11:09:21;5.13;;;2.97;;
20557;SDS011;10437;48.156;11.530;2023-12-14T11:11:54;6.90;;;3.07;;
20557;SDS011;10437;48.156;11.530;2023-12-14T11:14:22;4.70;;;3.20;;
20557;SDS011;10437;48.156;11.530;2023-12-14T11:16:50;5.03;;;2.83;;
20557;SDS011;10437;48.156;11.530;2023-12-14T11:19:25;5.13;;;3.10;;
20557;SDS011;10437;48.156;11.530;2023-12-14T11:21:59;5.30;;;3.10;;
20557;SDS011;10437;48.156;11.530;2023-12-14T11:24:35;5.00;;;3.00;;
20557;SDS011;10437;48.156;11.530;2023-12-14T11:27:03;4.00;;;2.67;;
20557;SDS011;10437;48.156;11.530;2023-12-14T11:29:31;4.47;;;2.70;;
20557;SDS011;10437;48.156;11.530;2023-12-14T11:31:58;5.57;;;2.90;;
20557;SDS011;10437;48.156;11.530;2023-12-14T11:34:27;4.63;;;2.40;;
20557;SDS011;10437;48.156;11.530;2023-12-14T11:36:54;3.37;;;2.17;;
20557;SDS011;10437;48.156;11.530;2023-12-14T11:39:21;5.33;;;2.57;;
20557;SDS011;10437;48.156;11.530;2023-12-14T11:41:58;2.90;;;1.90;;
20557;SDS011;10437;48.156;11.530;2023-12-14T11:44:25;3.53;;;2.00;;
20557;SDS011;10437;48.156;11.530;2023-12-14T11:46:52;4.10;;;2.30;;
20557;SDS011;10437;48.156;11.530;2023-12-14T11:49:20;5.60;;;2.40;;
20557;SDS011;10437;48.156;11.530;2023-12-14T11:51:48;3.80;;;1.57;;
20557;SDS011;10437;48.156;11.530;2023-12-14T11:54:17;3.37;;;1.67;;
20557;SDS011;10437;48.156;11.530;2023-12-14T11:56:45;4.40;;;1.40;;
20557;SDS011;10437;48.156;11.530;2023-12-14T11:59:14;1.93;;;1.30;;
20557;SDS011;10437;48.156;11.530;2023-12-14T12:01:53;2.30;;;1.33;;
20557;SDS011;10437;48.156;11.530;2023-12-14T12:04:21;4.87;;;1.30;;
20557;SDS011;10437;48.156;11.530;2023-12-14T12:06:49;1.67;;;1.27;;
20557;SDS011;10437;48.156;11.530;2023-12-14T12:09:31;5.70;;;1.50;;
20557;SDS011;10437;48.156;11.530;2023-12-14T12:12:04;2.60;;;1.50;;
20557;SDS011;10437;48.156;11.530;2023-12-14T12:14:32;5.83;;;1.50;;
20557;SDS011;10437;48.156;11.530;2023-12-14T12:16:58;3.67;;;1.33;;
20557;SDS011;10437;48.156;11.530;2023-12-14T12:19:25;2.03;;;1.20;;
20557;SDS011;10437;48.156;11.530;2023-12-14T12:21:54;2.90;;;1.50;;
20557;SDS011;10437;48.156;11.530;2023-12-14T12:24:21;2.43;;;1.20;;
20557;SDS011;10437;48.156;11.530;2023-12-14T12:26:48;1.63;;;1.13;;
20557;SDS011;10437;48.156;11.530;2023-12-14T12:29:15;2.20;;;1.30;;
20557;SDS011;10437;48.156;11.530;2023-12-14T12:31:43;3.20;;;1.70;;
20557;SDS011;10437;48.156;11.530;2023-12-14T12:34:10;4.67;;;1.20;;
20557;SDS011;10437;48.156;11.530;2023-12-14T12:36:37;2.43;;;1.30;;
20557;SDS011;10437;48.156;11.530;2023-12-14T12:39:06;2.70;;;1.30;;
20557;SDS011;10437;48.156;11.530;2023-12-14T12:41:33;2.40;;;1.30;;
20557;SDS011;10437;48.156;11.530;2023-12-14T12:44:02;3.30;;;1.60;;
20557;SDS011;10437;48.156;11.530;2023-12-14T12:46:31;5.03;;;1.73;;
20557;SDS011;10437;48.156;11.530;2023-12-14T12:48:59;3.00;;;1.43;;
20557;SDS011;10437;48.156;11.530;2023-12-14T12:51:26;3.97;;;1.63;;
20557;SDS011;10437;48.156;11.530;2023-12-14T12:53:54;3.30;;;1.50;;
20557;SDS011;10437;48.156;11.530;2023-12-14T12:56:23;2.67;;;1.40;;
20557;SDS011;10437;48.156;11.530;2023-12-14T12:58:50;1.60;;;1.30;;
20557;SDS011;10437;48.156;11.530;2023-12-14T13:01:19;2.40;;;1.20;;
20557;SDS011;10437;48.156;11.530;2023-12-14T13:03:48;1.97;;;1.20;;
20557;SDS011;10437;48.156;11.530;2023-12-14T13:06:19;2.00;;;1.00;;
20557;SDS011;10437;48.156;11.530;2023-12-14T13:08:46;2.63;;;1.20;;
20557;SDS011;10437;48.156;11.530;2023-12-14T13:11:13;4.30;;;1.53;;
20557;SDS011;10437;48.156;11.530;2023-12-14T13:13:41;1.83;;;1.20;;
20557;SDS011;10437;48.156;11.530;2023-12-14T13:16:09;2.07;;;1.20;;
20557;SDS011;10437;48.156;11.530;2023-12-14T13:18:38;2.97;;;1.00;;
20557;SDS011;10437;48.156;11.530;2023-12-14T13:21:05;1.77;;;1.30;;
20557;SDS011;10437;48.156;11.530;2023-12-14T13:23:33;2.37;;;1.37;;
20557;SDS011;10437;48.156;11.530;2023-12-14T13:26:00;2.27;;;1.33;;
20557;SDS011;10437;48.156;11.530;2023-12-14T13:28:27;3.37;;;1.30;;
20557;SDS011;10437;48.156;11.530;2023-12-14T13:30:56;2.07;;;1.10;;
20557;SDS011;10437;48.156;11.530;2023-12-14T13:33:23;3.47;;;1.30;;
20557;SDS011;10437;48.156;11.530;2023-12-14T13:35:50;2.63;;;1.20;;
20557;SDS011;10437;48.156;11.530;2023-12-14T13:38:18;1.87;;;1.17;;
20557;SDS011;10437;48.156;11.530;2023-12-14T13:40:45;2.30;;;1.27;;
20557;SDS011;10437;48.156;11.530;2023-12-14T13:43:12;2.13;;;1.23;;
20557;SDS011;10437;48.156;11.530;2023-12-14T13:45:40;2.93;;;1.47;;
20557;SDS011;10437;48.156;11.530;2023-12-14T13:48:08;1.97;;;1.23;;
20557;SDS011;10437;48.156;11.530;2023-12-14T13:50:36;2.53;;;1.10;;
20557;SDS011;10437;48.156;11.530;2023-12-14T13:53:03;1.80;;;1.23;;
20557;SDS011;10437;48.156;11.530;2023-12-14T13:55:30;4.70;;;1.60;;
20557;SDS011;10437;48.156;11.530;2023-12-14T13:57:58;1.17;;;1.00;;
20557;SDS011;10437;48.156;11.530;2023-12-14T14:00:26;2.80;;;1.40;;
20557;SDS011;10437;48.156;11.530;2023-12-14T14:02:53;2.30;;;1.30;;
20557;SDS011;10437;48.156;11.530;2023-12-14T14:05:21;2.33;;;1.50;;
20557;SDS011;10437;48.156;11.530;2023-12-14T14:07:48;2.77;;;1.40;;
20557;SDS011;10437;48.156;11.530;2023-12-14T14:10:16;3.33;;;1.40;;
20557;SDS011;10437;48.156;11.530;2023-12-14T14:12:44;4.10;;;1.40;;
20557;SDS011;10437;48.156;11.530;2023-12-14T14:15:11;3.70;;;1.50;;
20557;SDS011;10437;48.156;11.530;2023-12-14T14:17:38;2.70;;;1.77;;
20557;SDS011;10437;48.156;11.530;2023-12-14T14:20:06;4.03;;;1.40;;
20557;SDS011;10437;48.156;11.530;2023-12-14T14:22:36;3.70;;;2.20;;
20557;SDS011;10437;48.156;11.530;2023-12-14T14:25:04;2.70;;;1.60;;
20557;SDS011;10437;48.156;11.530;2023-12-14T14:27:32;2.30;;;1.37;;
20557;SDS011;10437;48.156;11.530;2023-12-14T14:30:00;2.77;;;1.70;;
20557;SDS011;10437;48.156;11.530;2023-12-14T14:32:27;3.73;;;1.60;;
20557;SDS011;10437;48.156;11.530;2023-12-14T14:34:56;3.67;;;1.70;;
20557;SDS011;10437;48.156;11.530;2023-12-14T14:37:26;2.57;;;1.63;;